Time;durP1;ratioP1;P1;durP2;ratioP2;P2;SDS_P1;SDS_P2;PMS_P1;PMS_P2;Temp;Humidity;BMP_temperature;BMP_pressure;BME280_temperature;BME280_humidity;BME280_pressure;Samples;Min_cycle;Max_cycle;Signal;HPM_P1;HPM_P2
2023/08/15 00:01:28;;;;;;;;;;;;;;;24.51;46.25;101139.41;4830031;29;114619;-78
2023/08/15 00:03:55;;;;;;;;;;;;;;;24.50;46.22;101137.69;4844161;28;113519;-78
2023/08/15 00:06:22;;;;;;;;;;;;;;;24.49;46.28;101125.16;4837180;29;124420;-78
2023/08/15 00:08:54;;;;;;;;;;;;;;;24.50;46.30;101116.03;4837973;29;124132;-78
2023/08/15 00:11:21;;;;;;;;;;;;;;;24.54;46.14;101122.84;4851057;29;115191;-78
2023/08/15 00:13:49;;;;;;;;;;;;;;;24.56;46.19;101115.44;4848785;29;114505;-78
2023/08/15 00:16:16;;;;;;;;;;;;;;;24.58;46.19;101118.88;4866902;28;124675;-78
2023/08/15 00:18:43;;;;;;;;;;;;;;;24.59;46.32;101117.84;4847807;28;123051;-78
2023/08/15 00:21:10;;;;;;;;;;;;;;;24.59;46.38;101115.13;4851382;29;114242;-78
2023/08/15 00:23:36;;;;;;;;;;;;;;;24.59;46.49;101115.13;4847214;29;114484;-78
2023/08/15 00:26:03;;;;;;;;;;;;;;;24.59;46.37;101120.56;4838482;29;123876;-78
2023/08/15 00:28:30;;;;;;;;;;;;;;;24.58;46.46;101121.56;4828206;29;122882;-78
2023/08/15 00:30:57;;;;;;;;;;;;;;;24.59;46.31;101115.13;4837158;29;114068;-78
2023/08/15 00:33:24;;;;;;;;;;;;;;;24.59;46.31;101125.97;4836015;29;113695;-78
2023/08/15 00:35:51;;;;;;;;;;;;;;;24.59;46.42;101123.25;4837499;29;124575;-78
2023/08/15 00:38:18;;;;;;;;;;;;;;;24.62;46.40;101131.09;4823151;29;124191;-78
2023/08/15 00:40:45;;;;;;;;;;;;;;;24.65;46.53;101125.34;4842639;29;114053;-78
2023/08/15 00:43:14;;;;;;;;;;;;;;;24.67;46.42;101128.75;4844395;29;113959;-78
2023/08/15 00:45:42;;;;;;;;;;;;;;;24.71;46.66;101123.03;4831831;29;123278;-78
2023/08/15 00:48:09;;;;;;;;;;;;;;;24.75;46.76;101119.00;4850817;28;125444;-78
2023/08/15 00:50:37;;;;;;;;;;;;;;;24.77;46.82;101117.84;4847925;29;113647;-78
2023/08/15 00:53:04;;;;;;;;;;;;;;;24.81;46.55;101129.25;4840572;29;113648;-78
2023/08/15 00:55:32;;;;;;;;;;;;;;;24.85;46.78;101130.63;4843917;29;122322;-77
2023/08/15 00:57:59;;;;;;;;;;;;;;;24.87;46.78;101128.59;4837189;29;124537;-77
2023/08/15 01:00:26;;;;;;;;;;;;;;;24.89;46.56;101129.31;4842387;29;115327;-78
2023/08/15 01:02:53;;;;;;;;;;;;;;;24.91;46.61;101123.72;4832226;29;115152;-78
2023/08/15 01:05:21;;;;;;;;;;;;;;;24.93;46.59;101122.56;4839089;29;124110;-78
2023/08/15 01:07:48;;;;;;;;;;;;;;;24.93;46.88;101111.72;4840611;29;122715;-78
2023/08/15 01:10:15;;;;;;;;;;;;;;;24.96;47.00;101116.84;4840971;29;113735;-78
2023/08/15 01:12:54;;;;;;;;;;;;;;;24.98;46.53;101103.13;4837429;29;114584;-78
2023/08/15 01:15:26;;;;;;;;;;;;;;;24.97;47.06;101102.25;4843994;28;123489;-78
2023/08/15 01:18:01;;;;;;;;;;;;;;;24.97;46.65;101102.25;4843512;29;123677;-78
2023/08/15 01:20:31;;;;;;;;;;;;;;;24.98;47.03;101092.28;4847685;29;115011;-78
2023/08/15 01:23:03;;;;;;;;;;;;;;;24.99;46.92;101092.13;4838353;28;112682;-78
2023/08/15 01:25:31;;;;;;;;;;;;;;;24.99;47.11;101089.41;4835776;29;125268;-78
2023/08/15 01:27:59;;;;;;;;;;;;;;;24.99;47.03;101083.97;4836224;29;123485;-78
2023/08/15 01:30:26;;;;;;;;;;;;;;;24.98;47.02;101076.88;4842309;29;114629;-78
2023/08/15 01:32:59;;;;;;;;;;;;;;;24.96;47.03;101073.47;4859228;28;113729;-79
2023/08/15 01:35:31;;;;;;;;;;;;;;;24.96;47.09;101084.31;4834419;29;123446;-78
2023/08/15 01:38:07;;;;;;;;;;;;;;;24.92;46.68;101099.19;4849360;29;122296;-78
2023/08/15 01:40:35;;;;;;;;;;;;;;;24.90;47.10;101119.31;4847974;28;113432;-78
2023/08/15 01:43:02;;;;;;;;;;;;;;;24.86;46.91;101126.88;4850812;28;114260;-78
2023/08/15 01:45:30;;;;;;;;;;;;;;;24.82;47.14;101120.09;4835828;29;123431;-79
2023/08/15 01:47:57;;;;;;;;;;;;;;;24.77;47.19;101130.53;4845300;28;123447;-79
2023/08/15 01:50:25;;;;;;;;;;;;;;;24.75;47.02;101151.50;4838112;29;115156;-79
2023/08/15 01:52:51;;;;;;;;;;;;;;;24.70;47.24;101161.97;4835370;29;114790;-79
2023/08/15 01:55:18;;;;;;;;;;;;;;;24.63;47.42;101162.56;4845623;29;124765;-78
2023/08/15 01:57:45;;;;;;;;;;;;;;;24.59;47.33;101166.59;4836809;29;124170;-78
2023/08/15 02:00:12;;;;;;;;;;;;;;;24.54;47.19;101166.19;4847047;29;113976;-79
2023/08/15 02:02:42;;;;;;;;;;;;;;;24.48;47.32;101155.94;4841100;29;114828;-79
2023/08/15 02:05:09;;;;;;;;;;;;;;;24.43;47.32;101160.97;4840857;29;124406;-78
2023/08/15 02:07:36;;;;;;;;;;;;;;;24.41;47.37;101155.72;4842999;29;121883;-79
2023/08/15 02:10:04;;;;;;;;;;;;;;;24.39;47.26;101159.56;4844343;28;113408;-79
2023/08/15 02:12:31;;;;;;;;;;;;;;;24.33;47.33;101169.13;4845152;29;113089;-79
2023/08/15 02:14:58;;;;;;;;;;;;;;;24.28;47.27;101172.31;4838700;29;123150;-80
2023/08/15 02:17:25;;;;;;;;;;;;;;;24.23;47.40;101177.31;4845885;29;123054;-79
2023/08/15 02:19:57;;;;;;;;;;;;;;;24.16;47.34;101184.31;4844964;29;113683;-79
2023/08/15 02:22:23;;;;;;;;;;;;;;;24.11;47.38;101186.66;4843140;29;113923;-79
2023/08/15 02:24:50;;;;;;;;;;;;;;;24.05;47.33;101192.63;4847552;29;124430;-79
2023/08/15 02:27:17;;;;;;;;;;;;;;;24.00;47.31;101195.81;4845794;29;124005;-79
2023/08/15 02:29:45;;;;;;;;;;;;;;;23.93;47.34;101194.69;4839753;28;113695;-79
2023/08/15 02:32:12;;;;;;;;;;;;;;;23.88;47.60;101191.56;4858837;28;113031;-79
2023/08/15 02:34:39;;;;;;;;;;;;;;;23.82;47.56;101203.81;4830222;29;123715;-79
2023/08/15 02:37:06;;;;;;;;;;;;;;;23.78;47.62;101201.53;4835932;29;123686;-79
2023/08/15 02:39:33;;;;;;;;;;;;;;;23.73;47.62;101199.25;4835550;29;115680;-79
2023/08/15 02:42:00;;;;;;;;;;;;;;;23.67;47.44;101194.44;4838062;29;114382;-79
2023/08/15 02:44:27;;;;;;;;;;;;;;;23.62;47.50;101194.91;4836158;29;125110;-79
2023/08/15 02:46:57;;;;;;;;;;;;;;;23.59;47.58;101186.22;4859662;28;122943;-79
2023/08/15 02:49:24;;;;;;;;;;;;;;;23.55;47.62;101191.06;4843518;29;113318;-79
2023/08/15 02:51:51;;;;;;;;;;;;;;;23.50;47.75;101188.78;4843498;29;112947;-79
2023/08/15 02:54:18;;;;;;;;;;;;;;;23.48;47.75;101190.78;4850573;28;124191;-79
2023/08/15 02:56:45;;;;;;;;;;;;;;;23.45;47.70;101185.66;4837980;29;123324;-79
2023/08/15 02:59:11;;;;;;;;;;;;;;;23.42;47.54;101185.94;4835223;29;114592;-79
2023/08/15 03:01:38;;;;;;;;;;;;;;;23.39;47.74;101186.22;4837739;29;113329;-79
2023/08/15 03:04:07;;;;;;;;;;;;;;;23.36;47.70;101191.94;4827933;29;124322;-78
2023/08/15 03:06:34;;;;;;;;;;;;;;;23.33;47.73;101203.88;4863381;28;123737;-79
2023/08/15 03:09:01;;;;;;;;;;;;;;;23.32;47.74;101212.16;4838186;29;114674;-79
2023/08/15 03:11:29;;;;;;;;;;;;;;;23.28;47.70;101214.28;4869577;28;113103;-79
2023/08/15 03:13:58;;;;;;;;;;;;;;;23.25;47.64;101213.72;4844544;29;123765;-79
2023/08/15 03:16:26;;;;;;;;;;;;;;;23.20;47.73;101207.88;4845662;29;123144;-79
2023/08/15 03:18:53;;;;;;;;;;;;;;;23.17;47.64;101209.03;4822963;29;114038;-80
2023/08/15 03:21:22;;;;;;;;;;;;;;;23.13;47.82;101208.47;4864548;28;96900;-79
2023/08/15 03:23:50;;;;;;;;;;;;;;;23.07;47.88;101211.69;4858028;28;124468;-79
2023/08/15 03:26:17;;;;;;;;;;;;;;;23.03;47.82;101213.00;4840972;29;124493;-79
2023/08/15 03:28:44;;;;;;;;;;;;;;;23.00;47.90;101218.66;4856430;28;115673;-79
2023/08/15 03:31:11;;;;;;;;;;;;;;;22.97;47.86;101210.81;4859627;28;114523;-79
2023/08/15 03:33:43;;;;;;;;;;;;;;;22.94;47.83;101213.78;4850562;29;123359;-79
2023/08/15 03:36:11;;;;;;;;;;;;;;;22.91;47.88;101220.34;4849708;28;123362;-78
2023/08/15 03:38:38;;;;;;;;;;;;;;;22.89;47.94;101216.09;4844622;29;114595;-78
2023/08/15 03:41:05;;;;;;;;;;;;;;;22.86;48.02;101211.81;4851267;28;113131;-78
2023/08/15 03:43:33;;;;;;;;;;;;;;;22.82;48.00;101198.72;4853964;29;124598;-79
2023/08/15 03:46:01;;;;;;;;;;;;;;;22.78;47.87;101191.91;4842550;29;124774;-79
2023/08/15 03:48:30;;;;;;;;;;;;;;;22.74;48.00;101194.88;4839267;29;114991;-79
2023/08/15 03:50:57;;;;;;;;;;;;;;;22.71;47.96;101192.44;4858100;28;112911;-79
2023/08/15 03:53:24;;;;;;;;;;;;;;;22.68;47.96;101187.34;4840235;29;125088;-79
2023/08/15 03:55:52;;;;;;;;;;;;;;;22.66;48.05;101194.72;4832599;29;123559;-79
2023/08/15 03:58:20;;;;;;;;;;;;;;;22.61;48.15;101196.16;4868991;28;114171;-79
2023/08/15 04:00:47;;;;;;;;;;;;;;;22.58;48.04;101196.41;4840577;29;112917;-79
2023/08/15 04:03:14;;;;;;;;;;;;;;;22.53;48.12;101204.94;4832358;29;124111;-79
2023/08/15 04:05:45;;;;;;;;;;;;;;;22.48;48.08;101201.78;4861020;28;122417;-79
2023/08/15 04:08:13;;;;;;;;;;;;;;;22.44;48.01;101200.38;4859042;28;113364;-79
2023/08/15 04:10:40;;;;;;;;;;;;;;;22.40;48.13;101198.94;4856312;28;114734;-79
2023/08/15 04:13:07;;;;;;;;;;;;;;;22.35;48.13;101208.28;4846316;29;123574;-79
2023/08/15 04:15:35;;;;;;;;;;;;;;;22.30;48.13;101199.75;4836530;29;122867;-79
2023/08/15 04:18:06;;;;;;;;;;;;;;;22.25;48.21;101199.31;4833926;29;116085;-79
2023/08/15 04:20:37;;;;;;;;;;;;;;;22.20;48.21;101212.31;4848605;29;114413;-79
2023/08/15 04:23:05;;;;;;;;;;;;;;;22.15;48.20;101217.25;4851130;28;123569;-79
2023/08/15 04:25:33;;;;;;;;;;;;;;;22.11;48.29;101221.22;4838396;29;124301;-79
2023/08/15 04:28:00;;;;;;;;;;;;;;;22.08;48.32;101224.19;4844491;29;113866;-79
2023/08/15 04:30:29;;;;;;;;;;;;;;;22.02;48.36;101213.91;4861494;28;113339;-79
2023/08/15 04:32:58;;;;;;;;;;;;;;;21.99;48.44;101219.59;4836091;29;122804;-79
2023/08/15 04:35:26;;;;;;;;;;;;;;;21.95;48.46;101233.34;4831243;29;123412;-79
2023/08/15 04:37:53;;;;;;;;;;;;;;;21.93;48.52;101234.47;4848573;28;112930;-79
2023/08/15 04:40:40;;;;;;;;;;;;;;;21.89;48.41;101236.59;4862185;28;113536;-79
2023/08/15 04:43:09;;;;;;;;;;;;;;;21.87;48.48;101246.66;4845526;29;122807;-79
2023/08/15 04:45:43;;;;;;;;;;;;;;;21.86;48.59;101247.63;4836770;29;123599;-79
2023/08/15 04:48:12;;;;;;;;;;;;;;;21.85;48.64;101259.41;4847305;29;114671;-79
2023/08/15 04:50:40;;;;;;;;;;;;;;;21.82;48.47;101259.66;4839740;29;114245;-79
2023/08/15 04:53:07;;;;;;;;;;;;;;;21.79;48.60;101254.53;4843347;29;123583;-79
2023/08/15 04:55:34;;;;;;;;;;;;;;;21.77;48.61;101262.78;4843540;29;123620;-79
2023/08/15 04:58:02;;;;;;;;;;;;;;;21.74;48.64;101262.19;4839994;29;113606;-78
2023/08/15 05:00:29;;;;;;;;;;;;;;;21.73;48.75;101271.25;4848765;29;113251;-79
2023/08/15 05:03:00;;;;;;;;;;;;;;;21.72;48.73;101275.78;4836679;29;124410;-79
2023/08/15 05:05:27;;;;;;;;;;;;;;;21.73;48.82;101284.72;4837602;29;124349;-79
2023/08/15 05:07:55;;;;;;;;;;;;;;;21.71;48.60;101294.78;4833624;29;114420;-79
2023/08/15 05:10:22;;;;;;;;;;;;;;;21.70;48.73;101303.84;4852119;28;114260;-79
2023/08/15 05:12:49;;;;;;;;;;;;;;;21.69;48.78;101304.84;4841597;29;123588;-79
2023/08/15 05:15:16;;;;;;;;;;;;;;;21.67;48.75;101306.81;4861378;28;123154;-79
2023/08/15 05:17:44;;;;;;;;;;;;;;;21.64;48.81;101309.78;4848492;29;113748;-79
2023/08/15 05:20:12;;;;;;;;;;;;;;;21.64;48.87;101315.16;4863967;28;112584;-80
2023/08/15 05:22:39;;;;;;;;;;;;;;;21.62;48.83;101317.13;4829284;29;124357;-80
2023/08/15 05:25:06;;;;;;;;;;;;;;;21.62;48.96;101327.91;4845007;29;122430;-80
2023/08/15 05:27:39;;;;;;;;;;;;;;;21.61;48.86;101320.84;4847082;29;115260;-80
2023/08/15 05:30:07;;;;;;;;;;;;;;;21.61;48.92;101327.06;4836900;29;116092;-80
2023/08/15 05:32:34;;;;;;;;;;;;;;;21.61;48.92;101337.00;4843317;29;124720;-80
2023/08/15 05:35:01;;;;;;;;;;;;;;;21.61;48.93;101337.00;4837227;29;124193;-80
2023/08/15 05:37:28;;;;;;;;;;;;;;;21.61;48.99;101345.09;4845410;29;114449;-80
2023/08/15 05:39:55;;;;;;;;;;;;;;;21.62;48.99;101338.69;4845216;29;113052;-80
2023/08/15 05:42:22;;;;;;;;;;;;;;;21.61;49.00;101342.41;4831369;29;123767;-80
2023/08/15 05:44:49;;;;;;;;;;;;;;;21.60;49.00;101335.28;4847215;29;124529;-80
2023/08/15 05:47:16;;;;;;;;;;;;;;;21.62;49.09;101341.41;4832586;29;114169;-80
2023/08/15 05:49:43;;;;;;;;;;;;;;;21.63;49.24;101335.03;4837379;29;113990;-80
2023/08/15 05:52:10;;;;;;;;;;;;;;;21.66;49.09;101329.38;4841177;28;123394;-80
2023/08/15 05:54:37;;;;;;;;;;;;;;;21.69;49.14;101334.50;4836713;29;123711;-80
2023/08/15 05:57:04;;;;;;;;;;;;;;;21.71;49.26;101348.72;4856114;28;115085;-80
2023/08/15 05:59:31;;;;;;;;;;;;;;;21.75;49.34;101339.38;4837504;29;114698;-80
2023/08/15 06:01:59;;;;;;;;;;;;;;;21.81;49.25;101348.78;4838001;29;124211;-80
2023/08/15 06:04:26;;;;;;;;;;;;;;;21.86;49.41;101342.00;4858324;28;123952;-80
2023/08/15 06:06:53;;;;;;;;;;;;;;;21.93;49.37;101343.22;4837799;29;115322;-80
2023/08/15 06:09:20;;;;;;;;;;;;;;;22.01;49.49;101347.09;4860120;28;114536;-80
2023/08/15 06:11:47;;;;;;;;;;;;;;;22.06;49.45;101361.91;4845827;29;123104;-79
2023/08/15 06:14:14;;;;;;;;;;;;;;;22.14;49.45;101361.25;4835529;29;125297;-80
2023/08/15 06:16:41;;;;;;;;;;;;;;;22.21;49.41;101362.44;4857141;28;114259;-80
2023/08/15 06:19:08;;;;;;;;;;;;;;;22.29;49.45;101356.41;4846993;29;114960;-80
2023/08/15 06:21:35;;;;;;;;;;;;;;;22.37;49.50;101361.13;4842076;29;124274;-80
2023/08/15 06:24:02;;;;;;;;;;;;;;;22.45;49.52;101364.00;4844854;29;124341;-80
2023/08/15 06:26:29;;;;;;;;;;;;;;;22.51;49.52;101369.75;4840312;29;114956;-80
2023/08/15 06:28:56;;;;;;;;;;;;;;;22.59;49.49;101371.78;4837368;29;113531;-80
2023/08/15 06:31:23;;;;;;;;;;;;;;;22.65;49.45;101376.63;4837282;29;124322;-80
2023/08/15 06:33:50;;;;;;;;;;;;;;;22.72;49.44;101377.78;4839813;29;123977;-80
2023/08/15 06:36:17;;;;;;;;;;;;;;;22.83;49.59;101389.47;4848708;29;114365;-79
2023/08/15 06:38:44;;;;;;;;;;;;;;;22.92;49.55;101383.25;4866822;28;113251;-80
2023/08/15 06:41:11;;;;;;;;;;;;;;;23.00;49.44;101386.16;4848220;29;123270;-80
2023/08/15 06:43:38;;;;;;;;;;;;;;;23.08;49.51;101389.06;4856189;29;124800;-80
2023/08/15 06:46:05;;;;;;;;;;;;;;;23.18;49.53;101390.94;4862887;28;115232;-79
2023/08/15 06:48:32;;;;;;;;;;;;;;;23.28;49.44;101399.91;4845426;29;114556;-79
2023/08/15 06:50:59;;;;;;;;;;;;;;;23.35;49.47;101390.25;4836649;29;124368;-80
2023/08/15 06:53:26;;;;;;;;;;;;;;;23.43;49.50;101393.13;4841259;29;123750;-80
2023/08/15 06:55:53;;;;;;;;;;;;;;;23.51;49.45;101395.97;4847041;29;112765;-80
2023/08/15 06:58:20;;;;;;;;;;;;;;;23.59;49.60;101397.13;4849910;29;111614;-80
2023/08/15 07:00:47;;;;;;;;;;;;;;;23.69;49.58;101397.97;4854116;28;123706;-80
2023/08/15 07:03:15;;;;;;;;;;;;;;;23.77;49.56;101395.44;4843598;29;124122;-80
2023/08/15 07:05:43;;;;;;;;;;;;;;;23.88;49.62;101398.03;4842314;29;114570;-80
2023/08/15 07:08:10;;;;;;;;;;;;;;;23.97;49.33;101400.88;4839360;29;113885;-80
2023/08/15 07:10:37;;;;;;;;;;;;;;;24.04;49.46;101402.03;4840952;29;124627;-80
2023/08/15 07:13:04;;;;;;;;;;;;;;;24.13;49.57;101401.16;4852736;28;124159;-80
2023/08/15 07:15:32;;;;;;;;;;;;;;;24.24;49.44;101397.41;4847203;29;114010;-80
2023/08/15 07:17:59;;;;;;;;;;;;;;;24.33;49.37;101401.97;4842575;29;112555;-80
2023/08/15 07:20:26;;;;;;;;;;;;;;;24.45;49.63;101405.38;4830289;29;123078;-79
2023/08/15 07:22:57;;;;;;;;;;;;;;;24.55;49.48;101405.38;4863754;28;123451;-79
2023/08/15 07:25:24;;;;;;;;;;;;;;;24.63;49.51;101402.78;4862492;28;112761;-80
2023/08/15 07:27:51;;;;;;;;;;;;;;;24.74;49.28;101415.31;4848077;29;113604;-80
2023/08/15 07:30:18;;;;;;;;;;;;;;;24.87;49.61;101405.00;4832869;29;124336;-80
2023/08/15 07:32:44;;;;;;;;;;;;;;;24.99;49.16;101419.19;4840308;29;124601;-79
2023/08/15 07:35:11;;;;;;;;;;;;;;;25.10;49.35;101415.44;4837497;29;115038;-80
2023/08/15 07:37:38;;;;;;;;;;;;;;;25.23;49.57;101410.56;4860112;28;113881;-79
2023/08/15 07:40:09;;;;;;;;;;;;;;;25.34;49.37;101413.06;4860133;28;123285;-80
2023/08/15 07:42:37;;;;;;;;;;;;;;;25.44;49.23;101413.84;4846238;29;123162;-80
2023/08/15 07:45:04;;;;;;;;;;;;;;;25.57;49.18;101415.34;4851368;29;115303;-80
2023/08/15 07:47:34;;;;;;;;;;;;;;;25.72;49.31;101415.66;4844427;29;114159;-80
2023/08/15 07:50:14;;;;;;;;;;;;;;;25.89;49.40;101413.97;4852885;28;124122;-80
2023/08/15 07:52:41;;;;;;;;;;;;;;;26.06;49.50;101418.53;4844815;29;123328;-80
2023/08/15 07:55:09;;;;;;;;;;;;;;;26.20;49.27;101415.28;4863286;28;114263;-80
2023/08/15 07:57:36;;;;;;;;;;;;;;;26.32;49.45;101417.75;4839805;29;113053;-80
2023/08/15 08:00:03;;;;;;;;;;;;;;;26.43;49.28;101412.06;4861167;28;124467;-79
2023/08/15 08:02:38;;;;;;;;;;;;;;;26.53;48.91;101415.50;4842913;29;124816;-80
2023/08/15 08:05:09;;;;;;;;;;;;;;;26.54;48.65;101422.66;4850815;28;114526;-80
2023/08/15 08:07:37;;;;;;;;;;;;;;;26.49;48.45;101425.00;4834747;29;113892;-80
2023/08/15 08:10:04;;;;;;;;;;;;;;;26.46;48.82;101428.00;4822354;29;124207;-79
2023/08/15 08:12:31;;;;;;;;;;;;;;;26.45;48.82;101434.47;4846817;29;124416;-80
2023/08/15 08:14:58;;;;;;;;;;;;;;;26.47;48.69;101431.59;4840750;29;114189;-80
2023/08/15 08:17:25;;;;;;;;;;;;;;;26.51;48.70;101438.41;4822413;29;113404;-79
2023/08/15 08:19:52;;;;;;;;;;;;;;;26.53;48.89;101448.09;4847868;29;124693;-80
2023/08/15 08:22:19;;;;;;;;;;;;;;;26.58;48.93;101440.34;4836440;29;122985;-80
2023/08/15 08:24:53;;;;;;;;;;;;;;;26.62;48.58;101440.91;4842769;29;114472;-79
2023/08/15 08:27:21;;;;;;;;;;;;;;;26.64;48.53;101443.47;4843161;29;114477;-79
2023/08/15 08:29:48;;;;;;;;;;;;;;;26.64;48.39;101454.34;4847724;29;124124;-79
2023/08/15 08:32:14;;;;;;;;;;;;;;;26.66;48.59;101452.31;4845531;29;123384;-80
2023/08/15 08:34:42;;;;;;;;;;;;;;;26.66;48.64;101457.75;4844245;29;114748;-80
2023/08/15 08:37:08;;;;;;;;;;;;;;;26.66;48.50;101452.31;4837757;29;113779;-80
2023/08/15 08:39:35;;;;;;;;;;;;;;;26.64;48.44;101448.91;4859178;28;124312;-80
2023/08/15 08:42:03;;;;;;;;;;;;;;;26.63;48.44;101452.63;4859784;28;124294;-80
2023/08/15 08:44:31;;;;;;;;;;;;;;;26.63;48.68;101449.91;4850493;29;114966;-80
2023/08/15 08:46:58;;;;;;;;;;;;;;;26.65;48.44;101445.16;4866546;28;113043;-79
2023/08/15 08:49:26;;;;;;;;;;;;;;;26.65;48.80;101450.59;4844371;29;125196;-79
2023/08/15 08:51:55;;;;;;;;;;;;;;;26.68;48.45;101455.72;4843134;29;123514;-79
2023/08/15 08:54:22;;;;;;;;;;;;;;;26.66;48.61;101452.31;4849853;29;115139;-80
2023/08/15 08:57:08;;;;;;;;;;;;;;;26.63;48.62;101452.63;4859330;28;114018;-79
2023/08/15 08:59:36;;;;;;;;;;;;;;;26.60;48.32;101443.78;4837319;29;124516;-79
2023/08/15 09:02:04;;;;;;;;;;;;;;;26.60;48.47;101454.66;4839859;29;123230;-80
2023/08/15 09:04:31;;;;;;;;;;;;;;;26.63;48.80;101456.19;4850807;29;114766;-79
2023/08/15 09:06:58;;;;;;;;;;;;;;;26.67;48.48;101454.00;4851828;29;114168;-79
2023/08/15 09:09:25;;;;;;;;;;;;;;;26.70;48.72;101454.53;4824106;29;123723;-79
2023/08/15 09:11:52;;;;;;;;;;;;;;;26.71;48.56;101461.69;4849454;29;122843;-80
2023/08/15 09:14:18;;;;;;;;;;;;;;;26.75;48.43;101462.22;4829146;29;115417;-80
2023/08/15 09:16:49;;;;;;;;;;;;;;;26.78;48.68;101467.31;4856620;28;114547;-80
2023/08/15 09:19:16;;;;;;;;;;;;;;;26.83;48.74;101470.41;4844079;29;124013;-80
2023/08/15 09:21:43;;;;;;;;;;;;;;;26.90;48.87;101476.91;4839018;29;123007;-79
2023/08/15 09:24:10;;;;;;;;;;;;;;;26.96;48.63;101473.56;4847904;29;113540;-80
2023/08/15 09:26:38;;;;;;;;;;;;;;;27.05;48.81;101479.91;4838289;29;114109;-79
2023/08/15 09:29:05;;;;;;;;;;;;;;;27.17;48.70;101472.31;4836641;29;125037;-80
2023/08/15 09:31:32;;;;;;;;;;;;;;;27.26;48.68;101476.78;4836898;29;123975;-80
2023/08/15 09:33:59;;;;;;;;;;;;;;;27.36;48.93;101482.94;4854707;28;115143;-79
2023/08/15 09:36:26;;;;;;;;;;;;;;;27.46;48.53;101493.69;4848604;29;113608;-79
2023/08/15 09:38:58;;;;;;;;;;;;;;;27.53;48.69;101485.72;4844277;29;124237;-79
2023/08/15 09:41:25;;;;;;;;;;;;;;;27.61;48.73;101485.75;4837210;29;123878;-79
2023/08/15 09:43:54;;;;;;;;;;;;;;;27.67;48.66;101504.16;4853696;28;113158;-79
2023/08/15 09:46:21;;;;;;;;;;;;;;;27.68;48.31;101505.84;4845424;29;113980;-79
2023/08/15 09:48:51;;;;;;;;;;;;;;;27.70;48.33;101511.97;4846373;28;124227;-79
2023/08/15 09:51:18;;;;;;;;;;;;;;;27.70;48.23;101509.25;4842785;29;123667;-79
2023/08/15 09:53:46;;;;;;;;;;;;;;;27.74;48.31;101513.34;4858734;28;114478;-79
2023/08/15 09:56:13;;;;;;;;;;;;;;;27.80;48.43;101516.44;4826079;29;114049;-79
2023/08/15 09:58:40;;;;;;;;;;;;;;;27.83;48.17;101518.84;4827497;29;124763;-79
2023/08/15 10:01:10;;;;;;;;;;;;;;;27.84;48.33;101512.34;4850461;28;124474;-79
2023/08/15 10:03:38;;;;;;;;;;;;;;;27.85;48.26;101514.91;4840616;29;114615;-79
2023/08/15 10:06:07;;;;;;;;;;;;;;;27.88;48.33;101519.19;4845320;29;114470;-79
2023/08/15 10:08:38;;;;;;;;;;;;;;;27.93;48.26;101516.84;4854416;29;124224;-79
2023/08/15 10:11:06;;;;;;;;;;;;;;;27.93;48.23;101525.00;4859198;28;123009;-80
2023/08/15 10:13:35;;;;;;;;;;;;;;;27.96;48.17;101519.25;4853101;29;114774;-79
2023/08/15 10:16:03;;;;;;;;;;;;;;;28.02;48.10;101521.28;4855122;29;114023;-79
2023/08/15 10:18:33;;;;;;;;;;;;;;;28.09;48.43;101527.75;4844257;29;123970;-79
2023/08/15 10:21:01;;;;;;;;;;;;;;;28.19;48.35;101529.50;4844985;29;125797;-79
2023/08/15 10:23:36;;;;;;;;;;;;;;;28.25;48.46;101526.94;4840113;29;113468;-79
2023/08/15 10:26:04;;;;;;;;;;;;;;;28.33;48.19;101532.41;4834742;29;113498;-79
2023/08/15 10:28:33;;;;;;;;;;;;;;;28.42;48.38;101533.22;4843529;29;123447;-79
2023/08/15 10:31:00;;;;;;;;;;;;;;;28.52;48.31;101533.97;4833419;29;124629;-80
2023/08/15 10:33:33;;;;;;;;;;;;;;;28.64;48.37;101530.91;4836485;29;114651;-79
2023/08/15 10:36:00;;;;;;;;;;;;;;;28.78;48.29;101543.81;4831475;29;114469;-79
2023/08/15 10:38:28;;;;;;;;;;;;;;;28.89;48.13;101545.34;4826268;29;124499;-79
2023/08/15 10:41:02;;;;;;;;;;;;;;;28.99;48.24;101550.59;4836492;29;124241;-79
2023/08/15 10:43:31;;;;;;;;;;;;;;;29.06;48.16;101529.81;4835814;29;114578;-79
2023/08/15 10:46:00;;;;;;;;;;;;;;;29.15;47.99;101527.94;4835788;29;115003;-79
2023/08/15 10:48:36;;;;;;;;;;;;;;;29.20;47.96;101531.84;4840092;29;122933;-79
2023/08/15 10:51:19;;;;;;;;;;;;;;;29.25;47.95;101529.47;4832605;29;124552;-80
2023/08/15 10:53:47;;;;;;;;;;;;;;;29.26;47.78;101525.69;4838732;29;115692;-79
2023/08/15 10:56:18;;;;;;;;;;;;;;;29.24;47.68;101522.28;4835775;29;115734;-79
2023/08/15 10:58:46;;;;;;;;;;;;;;;29.19;47.40;101532.88;4841440;29;123013;-79
2023/08/15 11:01:17;;;;;;;;;;;;;;;29.11;47.68;101527.41;4839679;29;124174;-79
2023/08/15 11:03:46;;;;;;;;;;;;;;;29.07;47.57;101528.78;4843115;29;114532;-79
2023/08/15 11:06:13;;;;;;;;;;;;;;;29.04;47.63;101537.31;4845622;29;113230;-79
2023/08/15 11:08:46;;;;;;;;;;;;;;;29.00;47.57;101530.50;4836865;29;125016;-79
2023/08/15 11:11:14;;;;;;;;;;;;;;;28.95;47.53;101532.91;4843954;29;124137;-79
2023/08/15 11:13:42;;;;;;;;;;;;;;;28.89;47.47;101540.72;4839646;29;114220;-78
2023/08/15 11:16:09;;;;;;;;;;;;;;;28.85;47.61;101536.66;4835643;29;112989;-78
2023/08/15 11:18:36;;;;;;;;;;;;;;;28.84;47.63;101536.81;4836581;29;123430;-78
2023/08/15 11:21:07;;;;;;;;;;;;;;;28.84;47.57;101543.16;4840164;29;123601;-78
2023/08/15 11:23:34;;;;;;;;;;;;;;;28.87;47.71;101547.41;4841109;29;113691;-78
2023/08/15 11:26:05;;;;;;;;;;;;;;;28.88;47.72;101549.97;4859797;28;113601;-78
2023/08/15 11:28:33;;;;;;;;;;;;;;;28.89;47.51;101546.19;4844545;29;124020;-79
2023/08/15 11:31:06;;;;;;;;;;;;;;;28.89;47.79;101548.91;4856252;28;123739;-78
2023/08/15 11:33:48;;;;;;;;;;;;;;;28.91;47.71;101544.16;4835125;29;112258;-78
2023/08/15 11:36:15;;;;;;;;;;;;;;;28.99;47.81;101547.88;4848217;28;113492;-78
2023/08/15 11:38:42;;;;;;;;;;;;;;;29.07;47.85;101553.34;4840027;29;124748;-78
2023/08/15 11:41:12;;;;;;;;;;;;;;;29.16;47.71;101546.88;4847208;29;124714;-79
2023/08/15 11:43:39;;;;;;;;;;;;;;;29.24;47.49;101544.13;4861306;28;116058;-79
2023/08/15 11:46:06;;;;;;;;;;;;;;;29.31;47.74;101534.22;4837678;29;114209;-79
2023/08/15 11:48:34;;;;;;;;;;;;;;;29.38;47.53;101533.50;4838504;28;123444;-78
2023/08/15 11:51:01;;;;;;;;;;;;;;;29.45;47.61;101537.22;4839437;29;124225;-78
2023/08/15 11:53:28;;;;;;;;;;;;;;;29.55;47.64;101540.56;4852537;29;113653;-78
2023/08/15 11:55:55;;;;;;;;;;;;;;;29.69;47.67;101537.13;4839272;29;114104;-78
2023/08/15 11:58:23;;;;;;;;;;;;;;;29.84;47.75;101544.59;4836888;29;124390;-78
2023/08/15 12:00:50;;;;;;;;;;;;;;;29.94;47.61;101545.19;4862150;28;124209;-79
2023/08/15 12:03:17;;;;;;;;;;;;;;;29.99;47.32;101542.78;4851980;29;115105;-78
2023/08/15 12:05:46;;;;;;;;;;;;;;;30.06;47.31;101535.56;4843203;29;114429;-78
2023/08/15 12:08:15;;;;;;;;;;;;;;;30.19;47.35;101536.84;4860937;28;124201;-78
2023/08/15 12:10:42;;;;;;;;;;;;;;;30.31;47.55;101529.94;4842905;29;123111;-78
2023/08/15 12:13:10;;;;;;;;;;;;;;;30.40;47.37;101534.34;4844757;29;114327;-79
2023/08/15 12:15:37;;;;;;;;;;;;;;;30.43;47.08;101533.09;4847843;29;113412;-78
2023/08/15 12:18:05;;;;;;;;;;;;;;;30.47;46.88;101540.75;4838080;29;124714;-78
2023/08/15 12:20:32;;;;;;;;;;;;;;;30.52;47.03;101531.16;4836534;29;123931;-78
2023/08/15 12:22:59;;;;;;;;;;;;;;;30.58;46.92;101536.72;4843313;29;114190;-78
2023/08/15 12:25:28;;;;;;;;;;;;;;;30.62;46.91;101523.53;4837479;29;113124;-78
2023/08/15 12:27:55;;;;;;;;;;;;;;;30.64;46.71;101533.25;4847219;29;123953;-78
2023/08/15 12:30:22;;;;;;;;;;;;;;;30.64;46.78;101529.69;4836944;29;123877;-78
2023/08/15 12:32:49;;;;;;;;;;;;;;;30.59;46.54;101526.63;4844593;29;116167;-78